createdAt,value
2019-03-04T00:00:16.664Z,56
2019-03-04T00:01:16.680Z,56
2019-03-04T00:02:16.683Z,56
2019-03-04T00:03:16.722Z,56
2019-03-04T00:04:16.755Z,56
2019-03-04T00:05:16.781Z,56
2019-03-04T00:06:16.794Z,57
2019-03-04T00:07:16.817Z,57
2019-03-04T00:08:16.862Z,57
2019-03-04T00:09:16.849Z,56
2019-03-04T00:10:16.908Z,57
2019-03-04T00:11:16.876Z,57
2019-03-04T00:12:17.074Z,57
2019-03-04T00:13:16.927Z,57
2019-03-04T00:14:16.954Z,57
2019-03-04T00:15:16.940Z,57
2019-03-04T00:16:16.975Z,57
2019-03-04T00:17:16.961Z,56
2019-03-04T00:18:16.993Z,57
2019-03-04T00:19:17.083Z,57
2019-03-04T00:20:17.025Z,57
2019-03-04T00:21:17.027Z,57
2019-03-04T00:22:17.048Z,57
2019-03-04T00:23:17.042Z,56
2019-03-04T00:24:17.054Z,57
2019-03-04T00:25:17.069Z,57
2019-03-04T00:26:17.098Z,57
2019-03-04T00:27:17.089Z,57
2019-03-04T00:28:17.106Z,57
2019-03-04T00:29:17.162Z,57
2019-03-04T00:30:17.117Z,57
2019-03-04T00:31:17.134Z,57
2019-03-04T00:32:17.126Z,57
2019-03-04T00:33:17.143Z,57
2019-03-04T00:34:17.163Z,57
2019-03-04T00:35:17.150Z,57
2019-03-04T00:36:17.163Z,57
2019-03-04T00:37:17.148Z,57
2019-03-04T00:38:17.213Z,57
2019-03-04T00:39:17.174Z,57
2019-03-04T00:40:17.153Z,57
2019-03-04T00:41:17.164Z,57
2019-03-04T00:42:17.209Z,57
2019-03-04T00:43:49.473Z,57
2019-03-04T00:44:17.206Z,57
2019-03-04T00:45:17.230Z,57
2019-03-04T00:46:17.202Z,57
2019-03-04T00:47:17.204Z,57
2019-03-04T00:48:17.199Z,57
2019-03-04T00:49:17.266Z,57
2019-03-04T00:50:17.281Z,57
2019-03-04T00:51:17.237Z,58
2019-03-04T00:52:17.250Z,57
2019-03-04T00:53:17.239Z,58
2019-03-04T00:54:17.338Z,58
2019-03-04T00:55:17.259Z,58
2019-03-04T00:56:17.257Z,58
2019-03-04T00:57:17.306Z,58
2019-03-04T00:58:17.262Z,58
2019-03-04T00:59:17.293Z,58
2019-03-04T01:00:17.267Z,58
2019-03-04T01:01:17.339Z,58
2019-03-04T01:02:17.324Z,58
2019-03-04T01:03:17.346Z,58
2019-03-04T01:04:17.319Z,58
2019-03-04T01:05:17.277Z,58
2019-03-04T01:06:17.320Z,58
2019-03-04T01:07:17.321Z,58
2019-03-04T01:08:17.326Z,58
2019-03-04T01:09:17.322Z,58
2019-03-04T01:10:17.307Z,59
2019-03-04T01:11:17.329Z,58
2019-03-04T01:12:17.359Z,58
2019-03-04T01:13:19.830Z,58
2019-03-04T01:14:17.345Z,58
2019-03-04T01:15:17.401Z,58
2019-03-04T01:16:17.586Z,58
2019-03-04T01:17:17.467Z,58
2019-03-04T01:18:17.500Z,58
2019-03-04T01:19:17.478Z,58
2019-03-04T01:20:17.509Z,59
2019-03-04T01:21:17.549Z,58
2019-03-04T01:22:17.785Z,58
2019-03-04T01:23:17.602Z,58
2019-03-04T01:24:17.582Z,58
2019-03-04T01:25:17.596Z,58
2019-03-04T01:26:17.669Z,58
2019-03-04T01:27:17.653Z,59
2019-03-04T01:28:17.803Z,58
2019-03-04T01:29:17.713Z,58
2019-03-04T01:30:17.705Z,58
2019-03-04T01:31:17.706Z,59
2019-03-04T01:32:17.739Z,58
2019-03-04T01:33:17.718Z,58
2019-03-04T01:34:17.782Z,58
2019-03-04T01:35:17.780Z,58
2019-03-04T01:36:17.787Z,58
2019-03-04T01:37:17.818Z,58
2019-03-04T01:38:17.827Z,59
2019-03-04T01:39:17.822Z,58
2019-03-04T01:40:17.798Z,58
2019-03-04T01:41:17.846Z,58
2019-03-04T01:42:17.803Z,58
2019-03-04T01:43:17.836Z,58
2019-03-04T01:44:17.856Z,58
2019-03-04T01:45:17.882Z,58
2019-03-04T01:46:17.847Z,58
2019-03-04T01:47:17.860Z,58
2019-03-04T01:48:17.850Z,58
2019-03-04T01:49:17.893Z,58
2019-03-04T01:50:17.878Z,59
2019-03-04T01:51:17.900Z,58
2019-03-04T01:52:17.865Z,59
2019-03-04T01:53:17.926Z,58
2019-03-04T01:54:17.884Z,58
2019-03-04T01:55:17.893Z,58
2019-03-04T01:56:17.884Z,59
2019-03-04T01:57:17.929Z,59
2019-03-04T01:58:17.926Z,58
2019-03-04T01:59:17.892Z,59
2019-03-04T02:00:17.969Z,58
2019-03-04T02:01:18.013Z,58
2019-03-04T02:02:18.021Z,58
2019-03-04T02:03:18.064Z,58
2019-03-04T02:04:18.088Z,58
2019-03-04T02:05:18.065Z,58
2019-03-04T02:06:18.140Z,58
2019-03-04T02:07:18.175Z,58
2019-03-04T02:08:18.210Z,58
2019-03-04T02:09:18.249Z,59
2019-03-04T02:10:18.232Z,59
2019-03-04T02:11:18.323Z,59
2019-03-04T02:12:18.479Z,59
2019-03-04T02:13:21.777Z,59
2019-03-04T02:14:18.420Z,59
2019-03-04T02:15:18.429Z,59
2019-03-04T02:16:18.458Z,59
2019-03-04T02:17:18.482Z,59
2019-03-04T02:18:18.514Z,59
2019-03-04T02:19:18.546Z,59
2019-03-04T02:20:18.590Z,59
2019-03-04T02:21:18.614Z,59
2019-03-04T02:22:18.633Z,59
2019-03-04T02:23:18.648Z,59
2019-03-04T02:24:18.696Z,59
2019-03-04T02:25:18.730Z,59
2019-03-04T02:26:18.726Z,59
2019-03-04T02:27:18.799Z,59
2019-03-04T02:28:21.028Z,59
2019-03-04T02:29:18.832Z,59
2019-03-04T02:30:18.828Z,59
2019-03-04T02:31:18.837Z,59
2019-03-04T02:32:18.967Z,59
2019-03-04T02:33:18.892Z,59
2019-03-04T02:34:18.952Z,59
2019-03-04T02:35:18.942Z,59
2019-03-04T02:36:19.091Z,59
2019-03-04T02:37:19.006Z,59
2019-03-04T02:38:19.014Z,59
2019-03-04T02:39:19.022Z,59
2019-03-04T02:40:19.016Z,60
2019-03-04T02:41:19.053Z,59
2019-03-04T02:42:19.085Z,59
2019-03-04T02:43:19.081Z,59
2019-03-04T02:44:19.135Z,60
2019-03-04T02:45:19.111Z,59
2019-03-04T02:46:19.134Z,60
2019-03-04T02:47:19.151Z,60
2019-03-04T02:48:19.167Z,60
2019-03-04T02:49:19.158Z,60
2019-03-04T02:50:19.153Z,60
2019-03-04T02:51:19.167Z,61
2019-03-04T02:52:19.174Z,60
2019-03-04T02:53:19.199Z,61
2019-03-04T02:54:19.202Z,61
2019-03-04T02:55:19.218Z,61
2019-03-04T02:56:19.332Z,61
2019-03-04T02:57:19.256Z,61
2019-03-04T02:58:19.293Z,61
2019-03-04T02:59:19.365Z,61
2019-03-04T03:00:19.330Z,61
2019-03-04T03:01:19.281Z,61
2019-03-04T03:02:19.343Z,61
2019-03-04T03:03:19.340Z,61
2019-03-04T03:04:19.350Z,61
2019-03-04T03:05:19.363Z,61
2019-03-04T03:06:19.353Z,61
2019-03-04T03:07:19.391Z,61
2019-03-04T03:08:19.361Z,61
2019-03-04T03:09:19.415Z,61
2019-03-04T03:10:19.363Z,62
2019-03-04T03:11:19.404Z,62
2019-03-04T03:12:19.409Z,62
2019-03-04T03:13:19.452Z,62
2019-03-04T03:14:19.365Z,62
2019-03-04T03:15:19.388Z,62
2019-03-04T03:16:19.396Z,62
2019-03-04T03:17:19.392Z,62
2019-03-04T03:18:19.424Z,62
2019-03-04T03:19:19.457Z,62
2019-03-04T03:20:19.397Z,62
2019-03-04T03:21:19.424Z,62
2019-03-04T03:22:19.464Z,62
2019-03-04T03:23:19.511Z,62
2019-03-04T03:24:19.553Z,62
2019-03-04T03:25:19.665Z,62
2019-03-04T03:26:22.068Z,62
2019-03-04T03:27:19.601Z,62
2019-03-04T03:28:19.629Z,62
2019-03-04T03:29:19.650Z,63
2019-03-04T03:30:19.704Z,63
2019-03-04T03:31:19.762Z,63
2019-03-04T03:32:19.772Z,62
2019-03-04T03:33:19.850Z,63
2019-03-04T03:34:19.892Z,63
2019-03-04T03:35:19.847Z,64
2019-03-04T03:36:19.864Z,63
2019-03-04T03:37:19.984Z,63
2019-03-04T03:38:19.935Z,64
2019-03-04T03:39:19.966Z,64
2019-03-04T03:40:20.103Z,64
2019-03-04T03:41:20.065Z,65
2019-03-04T03:42:20.065Z,65
2019-03-04T03:43:20.104Z,65
2019-03-04T03:44:20.142Z,66
2019-03-04T03:45:20.177Z,66
2019-03-04T03:46:20.203Z,65
2019-03-04T03:47:20.259Z,66
2019-03-04T03:48:20.279Z,66
2019-03-04T03:49:20.288Z,66
2019-03-04T03:50:20.367Z,65
2019-03-04T03:51:20.327Z,66
2019-03-04T03:52:20.411Z,66
2019-03-04T03:53:20.400Z,66
2019-03-04T03:54:20.409Z,65
2019-03-04T03:55:20.472Z,65
2019-03-04T03:56:20.481Z,65
2019-03-04T03:57:20.513Z,64
2019-03-04T03:58:20.536Z,64
2019-03-04T03:59:20.570Z,64
2019-03-04T04:00:20.581Z,63
2019-03-04T04:01:20.614Z,63
2019-03-04T04:02:20.642Z,63
2019-03-04T04:03:20.702Z,63
2019-03-04T04:04:20.690Z,63
2019-03-04T04:05:20.722Z,63
2019-03-04T04:06:20.737Z,62
2019-03-04T04:07:20.767Z,62
2019-03-04T04:08:20.782Z,62
2019-03-04T04:09:20.800Z,62
2019-03-04T04:10:20.845Z,62
2019-03-04T04:11:20.812Z,61
2019-03-04T04:12:20.877Z,61
2019-03-04T04:13:20.873Z,61
2019-03-04T04:14:20.922Z,61
2019-03-04T04:15:20.947Z,61
2019-03-04T04:16:20.894Z,61
2019-03-04T04:17:20.936Z,61
2019-03-04T04:18:20.959Z,61
2019-03-04T04:19:21.013Z,60
2019-03-04T04:20:21.021Z,60
2019-03-04T04:21:21.036Z,60
2019-03-04T04:22:21.064Z,59
2019-03-04T04:23:21.093Z,60
2019-03-04T04:24:21.087Z,60
2019-03-04T04:25:21.157Z,59
2019-03-04T04:26:21.084Z,59
2019-03-04T04:27:21.125Z,59
2019-03-04T04:28:21.156Z,59
2019-03-04T04:29:21.173Z,59
2019-03-04T04:30:21.198Z,59
2019-03-04T04:31:21.182Z,59
2019-03-04T04:32:21.228Z,59
2019-03-04T04:33:21.206Z,59
2019-03-04T04:34:21.230Z,59
2019-03-04T04:35:21.281Z,59
2019-03-04T04:36:21.286Z,59
2019-03-04T04:37:21.285Z,59
2019-03-04T04:38:21.410Z,59
2019-03-04T04:39:21.401Z,59
2019-03-04T04:40:21.293Z,59
2019-03-04T04:41:21.323Z,59
2019-03-04T04:42:21.321Z,59
2019-03-04T04:43:21.338Z,59
2019-03-04T04:44:21.325Z,59
2019-03-04T04:45:21.336Z,59
2019-03-04T04:46:21.371Z,59
2019-03-04T04:47:21.356Z,58
2019-03-04T04:48:21.410Z,58
2019-03-04T04:49:21.392Z,58
2019-03-04T04:50:21.366Z,58
2019-03-04T04:51:21.397Z,58
2019-03-04T04:52:23.259Z,57
2019-03-04T04:53:21.370Z,57
2019-03-04T04:54:21.376Z,57
2019-03-04T04:55:21.410Z,57
2019-03-04T04:56:21.407Z,57
2019-03-04T04:57:21.437Z,57
2019-03-04T04:58:21.393Z,57
2019-03-04T04:59:21.407Z,57
2019-03-04T05:00:21.464Z,57
2019-03-04T05:01:21.495Z,57
2019-03-04T05:02:21.416Z,56
2019-03-04T05:03:21.439Z,56
2019-03-04T05:04:21.449Z,56
2019-03-04T05:05:21.435Z,55
2019-03-04T05:06:21.455Z,55
2019-03-04T05:07:22.521Z,55
2019-03-04T05:08:24.102Z,55
2019-03-04T05:09:21.462Z,55
2019-03-04T05:10:21.469Z,55
2019-03-04T05:11:21.604Z,55
2019-03-04T05:12:21.579Z,55
2019-03-04T05:13:21.554Z,54
2019-03-04T05:14:21.507Z,54
2019-03-04T05:15:21.492Z,54
2019-03-04T05:16:21.599Z,54
2019-03-04T05:17:21.499Z,54
2019-03-04T05:18:21.485Z,54
2019-03-04T05:19:21.538Z,54
2019-03-04T05:20:21.625Z,54
2019-03-04T05:21:21.593Z,54
2019-03-04T05:22:21.600Z,54
2019-03-04T05:23:21.670Z,54
2019-03-04T05:24:21.641Z,54
2019-03-04T05:25:21.724Z,54
2019-03-04T05:26:21.751Z,53
2019-03-04T05:27:21.734Z,53
2019-03-04T05:28:21.759Z,54
2019-03-04T05:29:21.779Z,53
2019-03-04T05:30:21.809Z,53
2019-03-04T05:31:21.858Z,53
2019-03-04T05:32:21.886Z,53
2019-03-04T05:33:21.906Z,53
2019-03-04T05:34:21.904Z,53
2019-03-04T05:35:21.911Z,53
2019-03-04T05:36:21.961Z,53
2019-03-04T05:37:21.948Z,53
2019-03-04T05:38:21.975Z,53
2019-03-04T05:39:22.020Z,52
2019-03-04T05:40:22.064Z,52
2019-03-04T05:41:22.043Z,52
2019-03-04T05:42:22.058Z,52
2019-03-04T05:43:22.073Z,52
2019-03-04T05:44:22.104Z,52
2019-03-04T05:45:22.143Z,52
2019-03-04T05:46:22.128Z,52
2019-03-04T05:47:22.397Z,52
2019-03-04T05:48:22.215Z,52
2019-03-04T05:49:22.233Z,52
2019-03-04T05:50:22.208Z,52
2019-03-04T05:51:22.214Z,52
2019-03-04T05:52:22.267Z,52
2019-03-04T05:53:22.275Z,51
2019-03-04T05:54:22.256Z,52
2019-03-04T05:55:22.258Z,51
2019-03-04T05:56:22.326Z,52
2019-03-04T05:57:22.299Z,52
2019-03-04T05:58:22.283Z,51
2019-03-04T05:59:22.306Z,51
2019-03-04T06:00:22.338Z,51
2019-03-04T06:01:22.307Z,51
2019-03-04T06:02:22.314Z,51
2019-03-04T06:03:22.371Z,51
2019-03-04T06:04:22.362Z,51
2019-03-04T06:05:22.387Z,50
2019-03-04T06:06:22.355Z,51
2019-03-04T06:07:22.381Z,51
2019-03-04T06:08:22.372Z,50
2019-03-04T06:09:22.358Z,51
2019-03-04T06:10:22.379Z,51
2019-03-04T06:11:22.371Z,50
2019-03-04T06:12:22.419Z,50
2019-03-04T06:13:22.388Z,50
2019-03-04T06:14:22.391Z,50
2019-03-04T06:15:22.388Z,50
2019-03-04T06:16:22.445Z,50
2019-03-04T06:17:22.401Z,50
2019-03-04T06:18:22.413Z,49
2019-03-04T06:19:22.395Z,50
2019-03-04T06:20:23.492Z,50
2019-03-04T06:21:22.513Z,50
2019-03-04T06:22:22.522Z,50
2019-03-04T06:23:22.624Z,50
2019-03-04T06:24:22.630Z,50
2019-03-04T06:25:22.674Z,50
2019-03-04T06:26:22.719Z,50
2019-03-04T06:27:23.120Z,49
2019-03-04T06:28:22.782Z,50
2019-03-04T06:29:22.874Z,49
2019-03-04T06:30:22.861Z,50
2019-03-04T06:31:22.893Z,49
2019-03-04T06:32:22.862Z,50
2019-03-04T06:33:25.198Z,50
2019-03-04T06:34:25.178Z,49
2019-03-04T06:35:22.958Z,50
2019-03-04T06:36:23.010Z,50
2019-03-04T06:37:23.052Z,50
2019-03-04T06:38:23.054Z,50
2019-03-04T06:39:23.127Z,49
2019-03-04T06:40:23.161Z,49
2019-03-04T06:41:23.160Z,50
2019-03-04T06:42:23.335Z,49
2019-03-04T06:43:23.192Z,50
2019-03-04T06:44:23.305Z,49
2019-03-04T06:45:23.281Z,49
2019-03-04T06:46:23.311Z,49
2019-03-04T06:47:23.308Z,49
2019-03-04T06:48:23.277Z,49
2019-03-04T06:49:24.159Z,49
2019-03-04T06:50:23.297Z,49
2019-03-04T06:51:23.331Z,49
2019-03-04T06:52:23.386Z,49
2019-03-04T06:53:23.380Z,49
2019-03-04T06:54:23.406Z,49
2019-03-04T06:55:23.438Z,49
2019-03-04T06:56:23.485Z,49
2019-03-04T06:57:28.310Z,48
2019-03-04T06:58:23.520Z,48
2019-03-04T06:59:23.525Z,48
2019-03-04T07:00:23.563Z,48
2019-03-04T07:01:23.692Z,48
2019-03-04T07:02:23.613Z,48
2019-03-04T07:03:23.669Z,48
2019-03-04T07:04:23.639Z,48
2019-03-04T07:05:23.681Z,48
2019-03-04T07:06:23.677Z,48
2019-03-04T07:07:23.702Z,48
2019-03-04T07:08:23.666Z,48
2019-03-04T07:09:23.680Z,47
2019-03-04T07:10:23.713Z,48
2019-03-04T07:11:23.715Z,48
2019-03-04T07:12:24.540Z,47
2019-03-04T07:13:23.758Z,47
2019-03-04T07:14:23.741Z,47
2019-03-04T07:15:23.745Z,47
2019-03-04T07:16:23.783Z,47
2019-03-04T07:17:23.803Z,47
2019-03-04T07:18:23.808Z,47
2019-03-04T07:19:23.828Z,47
2019-03-04T07:20:23.842Z,47
2019-03-04T07:21:23.816Z,47
2019-03-04T07:22:23.841Z,46
2019-03-04T07:23:23.879Z,46
2019-03-04T07:24:23.910Z,46
2019-03-04T07:25:23.919Z,47
2019-03-04T07:26:23.877Z,46
2019-03-04T07:27:23.918Z,46
2019-03-04T07:28:23.909Z,46
2019-03-04T07:30:23.941Z,45
2019-03-04T07:30:28.834Z,45
2019-03-04T07:31:23.920Z,46
2019-03-04T07:32:23.929Z,45
2019-03-04T07:33:23.953Z,45
2019-03-04T07:34:23.949Z,45
2019-03-04T07:35:23.917Z,45
2019-03-04T07:36:23.954Z,45
2019-03-04T07:37:23.939Z,45
2019-03-04T07:38:23.981Z,45
2019-03-04T07:39:23.920Z,45
2019-03-04T07:40:23.986Z,45
2019-03-04T07:41:23.986Z,43
2019-03-04T07:42:23.973Z,44
2019-03-04T07:43:24.002Z,44
2019-03-04T07:44:23.995Z,44
2019-03-04T07:45:24.038Z,44
2019-03-04T07:46:24.072Z,44
2019-03-04T07:47:24.075Z,44
2019-03-04T07:48:24.121Z,44
2019-03-04T07:49:24.155Z,44
2019-03-04T07:50:24.181Z,44
2019-03-04T07:51:24.232Z,43
2019-03-04T07:52:24.252Z,44
2019-03-04T07:53:24.374Z,43
2019-03-04T07:54:24.324Z,43
2019-03-04T07:55:24.357Z,43
2019-03-04T07:56:24.363Z,44
2019-03-04T07:57:24.447Z,44
2019-03-04T07:58:26.696Z,43
2019-03-04T07:59:24.543Z,43
2019-03-04T08:00:25.057Z,43
2019-03-04T08:01:24.633Z,43
2019-03-04T08:02:24.573Z,43
2019-03-04T08:03:24.620Z,43
2019-03-04T08:04:24.636Z,43
2019-03-04T08:05:24.705Z,43
2019-03-04T08:06:24.688Z,42
2019-03-04T08:07:24.748Z,42
2019-03-04T08:08:24.761Z,42
2019-03-04T08:09:24.818Z,42
2019-03-04T08:10:24.871Z,42
2019-03-04T08:11:24.833Z,42
2019-03-04T08:12:24.929Z,42
2019-03-04T08:13:24.926Z,42
2019-03-04T08:14:24.957Z,42
2019-03-04T08:15:25.073Z,42
2019-03-04T08:16:25.029Z,41
2019-03-04T08:17:25.027Z,42
2019-03-04T08:18:25.078Z,42
2019-03-04T08:19:25.103Z,41
2019-03-04T08:20:25.148Z,41
2019-03-04T08:21:25.150Z,42
2019-03-04T08:22:25.193Z,42
2019-03-04T08:23:25.207Z,43
2019-03-04T08:24:25.206Z,42
2019-03-04T08:25:25.196Z,42
2019-03-04T08:26:25.219Z,42
2019-03-04T08:27:25.322Z,41
2019-03-04T08:28:25.233Z,41
2019-03-04T08:29:25.291Z,41
2019-03-04T08:30:25.321Z,41
2019-03-04T08:31:25.336Z,41
2019-03-04T08:32:25.341Z,42
2019-03-04T08:33:25.348Z,41
2019-03-04T08:34:30.921Z,42
2019-03-04T08:35:25.407Z,42
2019-03-04T08:36:25.483Z,42
2019-03-04T08:37:25.425Z,42
2019-03-04T08:38:25.460Z,42
2019-03-04T08:39:25.468Z,42
2019-03-04T08:40:25.471Z,42
2019-03-04T08:41:25.464Z,42
2019-03-04T08:42:25.476Z,42
2019-03-04T08:43:25.475Z,42
2019-03-04T08:44:25.551Z,43
2019-03-04T08:45:25.559Z,43
2019-03-04T08:46:25.644Z,43
2019-03-04T08:47:25.548Z,42
2019-03-04T08:48:25.602Z,43
2019-03-04T08:49:25.571Z,41
2019-03-04T08:50:25.609Z,41
2019-03-04T08:51:25.634Z,42
2019-03-04T08:52:25.638Z,42
2019-03-04T08:53:25.655Z,42
2019-03-04T08:54:25.620Z,41
2019-03-04T08:55:25.639Z,41
2019-03-04T08:56:25.637Z,41
2019-03-04T08:57:25.740Z,41
2019-03-04T08:58:25.685Z,41
2019-03-04T08:59:25.772Z,41
2019-03-04T09:00:25.656Z,40
2019-03-04T09:01:25.665Z,41
2019-03-04T09:02:25.729Z,40
2019-03-04T09:03:25.761Z,40
2019-03-04T09:04:25.716Z,41
2019-03-04T09:05:25.782Z,40
2019-03-04T09:06:25.697Z,41
2019-03-04T09:07:25.702Z,41
2019-03-04T09:08:25.752Z,41
2019-03-04T09:09:25.719Z,42
2019-03-04T09:10:25.717Z,40
2019-03-04T09:11:25.720Z,40
2019-03-04T09:12:25.735Z,40
2019-03-04T09:13:25.722Z,40
2019-03-04T09:14:25.723Z,40
2019-03-04T09:15:25.739Z,40
2019-03-04T09:16:25.754Z,40
2019-03-04T09:17:25.762Z,40
2019-03-04T09:18:25.745Z,40
2019-03-04T09:19:25.790Z,40
2019-03-04T09:20:25.788Z,41
2019-03-04T09:21:25.824Z,40
2019-03-04T09:22:25.814Z,40
2019-03-04T09:23:25.825Z,40
2019-03-04T09:24:25.801Z,40
2019-03-04T09:25:30.242Z,39
2019-03-04T09:26:28.332Z,39
2019-03-04T09:27:25.812Z,39
2019-03-04T09:28:25.835Z,39
2019-03-04T09:29:25.832Z,39
2019-03-04T09:30:25.861Z,39
2019-03-04T09:31:26.903Z,39
2019-03-04T09:32:25.860Z,39
2019-03-04T09:33:25.907Z,38
2019-03-04T09:34:25.847Z,37
2019-03-04T09:35:25.849Z,39
2019-03-04T09:36:25.879Z,38
2019-03-04T09:37:25.890Z,38
2019-03-04T09:38:25.862Z,38
2019-03-04T09:39:25.882Z,38
2019-03-04T09:40:25.890Z,37
2019-03-04T09:41:25.899Z,38
2019-03-04T09:42:25.900Z,38
2019-03-04T09:43:25.886Z,39
2019-03-04T09:44:25.923Z,38
2019-03-04T09:45:25.906Z,39
2019-03-04T09:46:26.068Z,38
2019-03-04T09:47:26.010Z,38
2019-03-04T09:48:25.989Z,38
2019-03-04T09:49:26.032Z,38
2019-03-04T09:50:26.006Z,38
2019-03-04T09:51:26.091Z,38
2019-03-04T09:52:26.012Z,38
2019-03-04T09:53:26.046Z,39
2019-03-04T09:54:26.041Z,38
2019-03-04T09:55:26.083Z,38
2019-03-04T09:56:26.107Z,37
2019-03-04T09:57:26.144Z,38
2019-03-04T09:58:26.146Z,38
2019-03-04T09:59:26.124Z,38
2019-03-04T10:00:26.120Z,37
2019-03-04T10:01:26.173Z,38
2019-03-04T10:02:26.181Z,37
2019-03-04T10:03:26.196Z,37
2019-03-04T10:04:26.182Z,37
2019-03-04T10:05:26.185Z,37
2019-03-04T10:06:26.239Z,36
2019-03-04T10:07:26.244Z,36
2019-03-04T10:08:32.701Z,36
2019-03-04T10:09:26.215Z,37
2019-03-04T10:10:26.247Z,36
2019-03-04T10:11:26.275Z,36
2019-03-04T10:12:27.095Z,35
2019-03-04T10:13:26.278Z,35
2019-03-04T10:14:26.364Z,35
2019-03-04T10:15:26.256Z,35
2019-03-04T10:16:26.367Z,35
2019-03-04T10:17:26.330Z,35
2019-03-04T10:18:26.274Z,35
2019-03-04T10:19:26.341Z,35
2019-03-04T10:20:26.285Z,35
2019-03-04T10:21:26.294Z,34
2019-03-04T10:22:26.584Z,36
2019-03-04T10:23:26.384Z,34
2019-03-04T10:24:26.307Z,34
2019-03-04T10:25:26.290Z,34
2019-03-04T10:26:26.326Z,35
2019-03-04T10:27:26.396Z,35
2019-03-04T10:28:26.363Z,35
2019-03-04T10:29:26.426Z,34
2019-03-04T10:30:26.569Z,35
2019-03-04T10:31:26.647Z,35
2019-03-04T10:32:26.511Z,35
2019-03-04T10:32:48.107Z,35
2019-03-04T10:33:47.927Z,35
2019-03-04T10:34:47.978Z,36
2019-03-04T10:35:47.959Z,36
2019-03-04T10:36:48.029Z,35
2019-03-04T10:37:48.001Z,35
2019-03-04T10:38:47.969Z,35
2019-03-04T10:39:48.078Z,35
2019-03-04T10:40:50.396Z,35
2019-03-04T10:41:48.052Z,35
2019-03-04T10:42:48.032Z,35
2019-03-04T10:43:48.048Z,35
2019-03-04T10:44:48.070Z,36
2019-03-04T10:45:48.169Z,35
2019-03-04T10:46:48.115Z,35
2019-03-04T10:47:48.125Z,35
2019-03-04T10:48:48.146Z,36
2019-03-04T10:49:48.102Z,35
2019-03-04T10:50:48.206Z,35
2019-03-04T10:51:48.129Z,36
2019-03-04T10:52:48.175Z,35
2019-03-04T10:53:48.198Z,34
2019-03-04T10:54:48.194Z,35
2019-03-04T10:55:48.192Z,35
2019-03-04T10:56:48.238Z,35
2019-03-04T10:57:48.218Z,35
2019-03-04T10:58:48.217Z,36
2019-03-04T10:59:48.254Z,35
2019-03-04T11:00:48.221Z,35
2019-03-04T11:01:49.979Z,35
2019-03-04T11:02:48.283Z,34
2019-03-04T11:03:48.273Z,35
2019-03-04T11:04:48.289Z,35
2019-03-04T11:05:48.271Z,34
2019-03-04T11:06:48.316Z,34
2019-03-04T11:07:48.318Z,34
2019-03-04T11:08:48.301Z,34
2019-03-04T11:09:48.294Z,34
2019-03-04T11:10:48.355Z,34
2019-03-04T11:11:48.346Z,34
2019-03-04T11:12:48.376Z,33
2019-03-04T11:13:48.368Z,34
2019-03-04T11:14:48.347Z,34
2019-03-04T11:15:48.346Z,33
2019-03-04T11:16:48.471Z,33
2019-03-04T11:17:48.409Z,32
2019-03-04T11:18:48.384Z,33
2019-03-04T11:19:48.438Z,33
2019-03-04T11:20:48.451Z,34
2019-03-04T11:21:48.438Z,33
2019-03-04T11:22:48.444Z,33
2019-03-04T11:23:48.491Z,33
2019-03-04T11:24:48.476Z,34
2019-03-04T11:25:48.497Z,33
2019-03-04T11:26:48.509Z,32
2019-03-04T11:27:48.527Z,32
2019-03-04T11:28:48.520Z,33
2019-03-04T11:29:48.573Z,33
2019-03-04T11:30:48.589Z,33
2019-03-04T11:31:48.572Z,33
2019-03-04T11:32:48.612Z,33
2019-03-04T11:33:48.561Z,33
2019-03-04T11:34:48.578Z,33
2019-03-04T11:35:49.687Z,33
2019-03-04T11:36:48.588Z,32
2019-03-04T11:37:48.604Z,32
2019-03-04T11:38:48.601Z,32
2019-03-04T11:39:48.600Z,32
2019-03-04T11:40:48.607Z,32
2019-03-04T11:41:48.582Z,31
2019-03-04T11:42:50.503Z,32
2019-03-04T11:43:48.625Z,31
2019-03-04T11:44:48.659Z,31
2019-03-04T11:45:48.732Z,32
2019-03-04T11:46:48.725Z,31
2019-03-04T11:47:48.793Z,31
2019-03-04T11:48:48.837Z,32
2019-03-04T11:49:48.843Z,31
2019-03-04T11:50:48.910Z,32
2019-03-04T11:51:48.944Z,31
2019-03-04T11:52:48.952Z,32
2019-03-04T11:53:48.992Z,32
2019-03-04T11:54:49.010Z,31
2019-03-04T11:55:49.013Z,32
2019-03-04T11:56:49.111Z,32
2019-03-04T11:57:49.155Z,31
2019-03-04T11:58:49.105Z,31
2019-03-04T11:59:49.149Z,30
2019-03-04T12:00:49.201Z,30
2019-03-04T12:01:49.241Z,30
2019-03-04T12:02:49.244Z,30
2019-03-04T12:03:49.308Z,31
2019-03-04T12:04:49.340Z,30
2019-03-04T12:05:49.435Z,30
2019-03-04T12:06:49.400Z,29
2019-03-04T12:07:49.384Z,29
2019-03-04T12:08:49.451Z,29
2019-03-04T12:09:49.435Z,30
2019-03-04T12:10:49.458Z,29
2019-03-04T12:11:49.514Z,30
2019-03-04T12:12:49.577Z,29
2019-03-04T12:13:49.563Z,29
2019-03-04T12:14:49.663Z,31
2019-03-04T12:15:49.637Z,29
2019-03-04T12:16:50.813Z,29
2019-03-04T12:17:49.713Z,29
2019-03-04T12:18:49.764Z,30
2019-03-04T12:19:49.797Z,29
2019-03-04T12:20:49.760Z,30
2019-03-04T12:21:49.777Z,29
2019-03-04T12:22:49.894Z,29
2019-03-04T12:23:49.878Z,30
2019-03-04T12:24:49.903Z,30
2019-03-04T12:25:49.874Z,29
2019-03-04T12:26:49.930Z,29
2019-03-04T12:27:49.972Z,29
2019-03-04T12:28:49.949Z,29
2019-03-04T12:29:49.980Z,30
2019-03-04T12:30:49.992Z,31
2019-03-04T12:31:49.977Z,30
2019-03-04T12:32:50.029Z,30
2019-03-04T12:33:50.020Z,30
2019-03-04T12:34:50.067Z,30
2019-03-04T12:35:50.057Z,30
2019-03-04T12:36:50.089Z,30
2019-03-04T12:37:50.087Z,30
2019-03-04T12:38:50.180Z,31
2019-03-04T12:39:50.121Z,31
2019-03-04T12:40:50.144Z,32
2019-03-04T12:41:50.198Z,31
2019-03-04T12:42:50.132Z,32
2019-03-04T12:43:50.202Z,31
2019-03-04T12:44:50.185Z,31
2019-03-04T12:45:50.201Z,31
2019-03-04T12:46:50.251Z,31
2019-03-04T12:47:50.214Z,32
2019-03-04T12:48:50.258Z,32
2019-03-04T12:49:50.252Z,32
2019-03-04T12:50:50.264Z,32
2019-03-04T12:51:50.253Z,32
2019-03-04T12:52:50.255Z,32
2019-03-04T12:53:50.281Z,33
2019-03-04T12:54:50.296Z,33
2019-03-04T12:55:50.258Z,32
2019-03-04T12:56:50.251Z,33
2019-03-04T12:57:50.308Z,32
2019-03-04T12:58:50.269Z,33
2019-03-04T12:59:50.358Z,32
2019-03-04T13:00:50.307Z,33
2019-03-04T13:01:50.300Z,33
2019-03-04T13:02:57.323Z,32
2019-03-04T13:03:50.450Z,33
2019-03-04T13:04:50.445Z,34
2019-03-04T13:05:50.459Z,33
2019-03-04T13:06:53.006Z,33
2019-03-04T13:08:22.766Z,33
2019-03-04T13:08:50.579Z,32
2019-03-04T13:09:50.732Z,33
2019-03-04T13:10:50.677Z,33
2019-03-04T13:11:50.699Z,33
2019-03-04T13:12:50.728Z,33
2019-03-04T13:13:50.744Z,33
2019-03-04T13:14:50.761Z,33
2019-03-04T13:15:50.857Z,33
2019-03-04T13:16:50.875Z,32
2019-03-04T13:17:50.861Z,34
2019-03-04T13:18:50.939Z,34
2019-03-04T13:19:50.907Z,33
2019-03-04T13:20:50.941Z,34
2019-03-04T13:21:50.981Z,34
2019-03-04T13:22:51.017Z,34
2019-03-04T13:23:51.059Z,34
2019-03-04T13:24:51.141Z,33
2019-03-04T13:25:52.350Z,33
2019-03-04T13:26:51.106Z,34
2019-03-04T13:28:51.195Z,33
2019-03-04T13:29:51.234Z,34
2019-03-04T13:30:51.246Z,34
2019-03-04T13:31:51.272Z,34
2019-03-04T13:32:51.304Z,34
2019-03-04T13:33:51.307Z,35
2019-03-04T13:34:51.331Z,34
2019-03-04T13:35:51.375Z,34
2019-03-04T13:36:51.430Z,34
2019-03-04T13:37:51.409Z,34
2019-03-04T13:38:51.497Z,34
2019-03-04T13:39:51.461Z,35
2019-03-04T13:40:51.684Z,34
2019-03-04T13:41:51.558Z,35
2019-03-04T13:42:51.599Z,34
2019-03-04T13:43:51.600Z,34
2019-03-04T13:44:51.618Z,34
2019-03-04T13:45:51.694Z,35
2019-03-04T13:46:51.703Z,35
2019-03-04T13:47:51.705Z,36
2019-03-04T13:48:51.771Z,36
2019-03-04T13:49:51.781Z,37
2019-03-04T13:50:51.804Z,37
2019-03-04T13:51:51.833Z,38
2019-03-04T13:52:54.117Z,38
2019-03-04T13:53:51.878Z,38
2019-03-04T13:54:51.955Z,38
2019-03-04T13:55:51.953Z,38
2019-03-04T13:56:52.054Z,38
2019-03-04T13:57:51.961Z,39
2019-03-04T13:58:52.009Z,39
2019-03-04T13:59:53.095Z,38
2019-03-04T14:00:52.104Z,37
2019-03-04T14:01:52.116Z,38
2019-03-04T14:02:52.159Z,37
2019-03-04T14:03:52.091Z,37
2019-03-04T14:04:52.139Z,37
2019-03-04T14:05:52.187Z,37
2019-03-04T14:06:53.526Z,37
2019-03-04T14:07:52.189Z,38
2019-03-04T14:08:52.189Z,38
2019-03-04T14:09:52.226Z,38
2019-03-04T14:10:52.274Z,38
2019-03-04T14:11:52.281Z,38
2019-03-04T14:12:52.311Z,38
2019-03-04T14:13:52.303Z,38
2019-03-04T14:14:52.378Z,37
2019-03-04T14:15:52.338Z,37